Terminal Aerodrome Forecast
Issued by NWS

Home | Current Version | Previous Version | Text Only | Print | Product List | Glossary On
Versions: 1 2 3 4 5 6 7 8 9 10 11 12 13 14 15 16 17 18 19 20 21
000
FTUS44 KLZK 181120
TAFHRO
TAF
KHRO 181120Z 1812/1912 VRB04KT P6SM VCFG SCT025
      TEMPO 1812/1813 4SM BR BKN025
     FM181500 22006KT P6SM SCT250
     FM190000 VRB05KT P6SM BKN250 PROB30 1906/1912 -TSRA BKN050CB=

USA.gov is the U.S. government's official web portal to all federal, state and local government web resources and services.